Time;durP1;ratioP1;P1;durP2;ratioP2;P2;SDS_P1;SDS_P2;PMS_P1;PMS_P2;Temp;Humidity;BMP_temperature;BMP_pressure;BME280_temperature;BME280_humidity;BME280_pressure;Samples;Min_cycle;Max_cycle;Signal;HPM_P1;HPM_P2
2022/08/10 00:00:25;;;;;;;10.87;10.17;;;16.90;94.20;;;;;;5030314;28;20193;-61
2022/08/10 00:02:54;;;;;;;10.40;9.60;;;16.90;94.20;;;;;;5029455;28;20706;-60
2022/08/10 00:05:20;;;;;;;9.97;9.37;;;16.80;95.40;;;;;;5030475;28;20430;-60
2022/08/10 00:07:47;;;;;;;10.60;9.70;;;16.80;96.70;;;;;;5030272;28;20471;-60
2022/08/10 00:10:14;;;;;;;10.80;10.10;;;16.70;96.70;;;;;;5029347;28;20471;-61
2022/08/10 00:12:41;;;;;;;10.27;9.50;;;16.60;97.60;;;;;;5029415;28;20460;-60
2022/08/10 00:15:08;;;;;;;10.30;9.60;;;16.60;98.60;;;;;;5030190;28;20446;-58
2022/08/10 00:17:34;;;;;;;10.00;9.30;;;16.60;99.30;;;;;;5029982;28;20497;-60
2022/08/10 00:19:59;;;;;;;10.60;9.90;;;16.50;99.90;;;;;;5029902;28;20441;-60
2022/08/10 00:22:25;;;;;;;10.27;9.40;;;16.50;99.90;;;;;;5029946;28;20183;-61
2022/08/10 00:24:51;;;;;;;11.03;10.23;;;16.50;99.90;;;;;;5030249;28;20187;-60
2022/08/10 00:27:16;;;;;;;10.60;9.90;;;16.40;99.90;;;;;;5028481;28;20188;-60
2022/08/10 00:29:42;;;;;;;10.97;10.17;;;16.30;99.90;;;;;;5029835;28;20741;-59
2022/08/10 00:32:08;;;;;;;10.93;10.23;;;16.30;99.90;;;;;;5029643;28;20231;-61
2022/08/10 00:34:33;;;;;;;11.13;10.33;;;16.30;99.90;;;;;;5029267;28;20182;-60
2022/08/10 00:37:00;;;;;;;10.43;9.63;;;16.20;99.90;;;;;;5029521;28;20183;-60
2022/08/10 00:39:26;;;;;;;11.40;10.57;;;16.10;99.90;;;;;;5029013;28;20179;-60
2022/08/10 00:41:53;;;;;;;10.93;10.07;;;16.10;99.90;;;;;;5029072;28;20439;-60
2022/08/10 00:44:20;;;;;;;11.13;10.13;;;16.00;99.90;;;;;;5027402;28;20443;-61
2022/08/10 00:46:45;;;;;;;10.93;10.23;;;16.00;99.90;;;;;;5029747;28;20421;-60
2022/08/10 00:49:12;;;;;;;11.03;10.20;;;16.00;99.90;;;;;;5029950;28;20424;-60
2022/08/10 00:51:38;;;;;;;10.53;9.83;;;15.80;99.90;;;;;;5028629;28;20240;-60
2022/08/10 00:54:05;;;;;;;10.67;9.90;;;15.80;99.90;;;;;;5029522;28;20440;-59
2022/08/10 00:56:31;;;;;;;10.97;10.17;;;15.80;99.90;;;;;;5027925;28;20462;-60
2022/08/10 00:58:57;;;;;;;11.50;10.40;;;15.80;99.90;;;;;;5029018;28;20521;-56
2022/08/10 01:01:23;;;;;;;12.10;11.00;;;15.70;99.90;;;;;;5028748;28;20545;-61
2022/08/10 01:03:48;;;;;;;11.90;10.90;;;15.70;99.90;;;;;;5028107;28;20187;-60
2022/08/10 01:06:24;;;;;;;10.77;9.97;;;15.70;99.90;;;;;;5028150;28;20610;-60
2022/08/10 01:08:53;;;;;;;11.47;10.67;;;15.70;99.90;;;;;;5026865;28;20190;-59
2022/08/10 01:11:42;;;;;;;11.70;10.50;;;15.60;99.90;;;;;;5028662;28;20851;-59
2022/08/10 01:14:27;;;;;;;10.83;10.00;;;15.60;99.90;;;;;;5027362;28;20429;-60
2022/08/10 01:17:00;;;;;;;11.50;10.70;;;15.50;99.90;;;;;;5018134;28;20495;-59
2022/08/10 01:20:07;;;;;;;11.03;10.23;;;15.50;99.90;;;;;;5022905;28;20513;-61
2022/08/10 01:22:56;;;;;;;10.90;10.20;;;15.40;99.90;;;;;;5028608;28;20430;-60
2022/08/10 01:25:40;;;;;;;10.93;10.10;;;15.40;99.90;;;;;;5028581;28;20431;-60
2022/08/10 01:28:27;;;;;;;11.13;10.43;;;15.30;99.90;;;;;;5027089;28;20732;-59
2022/08/10 01:30:57;;;;;;;11.23;10.47;;;15.30;99.90;;;;;;5028335;28;20512;-59
2022/08/10 01:33:34;;;;;;;11.17;10.27;;;15.30;99.90;;;;;;5028548;28;20473;-60
2022/08/10 01:36:06;;;;;;;11.23;10.43;;;15.20;99.90;;;;;;5028593;28;20451;-60
2022/08/10 01:38:37;;;;;;;11.50;10.70;;;15.20;99.90;;;;;;5028173;28;20516;-61
2022/08/10 01:41:16;;;;;;;11.97;11.07;;;15.20;99.90;;;;;;5028541;28;20438;-61
2022/08/10 01:44:02;;;;;;;12.13;11.33;;;15.20;99.90;;;;;;5028723;28;20426;-60
2022/08/10 01:46:32;;;;;;;12.20;11.07;;;15.20;99.90;;;;;;5028023;28;20559;-60
2022/08/10 01:48:59;;;;;;;11.60;10.90;;;15.10;99.90;;;;;;5029045;28;20437;-60
2022/08/10 01:51:44;;;;;;;11.50;10.60;;;15.10;99.90;;;;;;5027328;28;20473;-60
2022/08/10 01:54:14;;;;;;;11.67;10.70;;;15.00;99.90;;;;;;5027980;28;20437;-61
2022/08/10 01:56:43;;;;;;;11.43;10.30;;;15.00;99.90;;;;;;5026422;28;20441;-61
2022/08/10 01:59:17;;;;;;;11.40;10.50;;;15.00;99.90;;;;;;5028563;28;20465;-61
2022/08/10 02:01:57;;;;;;;12.93;10.27;;;14.90;99.90;;;;;;5026648;28;20792;-61
2022/08/10 02:04:26;;;;;;;10.87;10.17;;;14.90;99.90;;;;;;5027882;28;20443;-60
2022/08/10 02:06:53;;;;;;;11.67;10.87;;;14.90;99.90;;;;;;5027805;28;20441;-61
2022/08/10 02:09:25;;;;;;;11.13;10.43;;;14.90;99.90;;;;;;5028498;28;20758;-61
2022/08/10 02:11:52;;;;;;;11.90;11.00;;;14.90;99.90;;;;;;5028450;28;20468;-61
2022/08/10 02:14:19;;;;;;;12.70;11.70;;;14.90;99.90;;;;;;5028094;28;20436;-55
2022/08/10 02:16:49;;;;;;;14.50;11.63;;;14.80;99.90;;;;;;5027768;28;20971;-61
2022/08/10 02:19:18;;;;;;;11.50;10.70;;;14.60;99.90;;;;;;5024916;28;20518;-60
2022/08/10 02:21:46;;;;;;;12.17;11.37;;;14.60;99.90;;;;;;5027378;28;20509;-60
2022/08/10 02:24:14;;;;;;;12.33;11.33;;;14.50;99.90;;;;;;5028955;28;20500;-60
2022/08/10 02:26:42;;;;;;;12.27;11.20;;;14.50;99.90;;;;;;5030522;28;20450;-61
2022/08/10 02:29:11;;;;;;;11.83;10.90;;;14.50;99.90;;;;;;5031999;28;20527;-61
2022/08/10 02:31:39;;;;;;;11.93;11.13;;;14.40;99.90;;;;;;5030685;28;20501;-60
2022/08/10 02:34:07;;;;;;;11.47;10.63;;;14.40;99.90;;;;;;5032605;28;20430;-60
2022/08/10 02:36:35;;;;;;;11.17;10.37;;;14.40;99.90;;;;;;5032257;28;20429;-49
2022/08/10 02:39:03;;;;;;;11.97;10.97;;;14.40;99.90;;;;;;5032245;28;20430;-60
2022/08/10 02:41:44;;;;;;;12.80;11.73;;;14.40;99.90;;;;;;5032199;28;20813;-61
2022/08/10 02:44:35;;;;;;;11.77;10.87;;;14.30;99.90;;;;;;5045594;28;20441;-61
2022/08/10 02:47:07;;;;;;;12.47;11.57;;;14.30;99.90;;;;;;5026853;28;20441;-61
2022/08/10 02:49:42;;;;;;;12.70;11.70;;;14.30;99.90;;;;;;5032468;28;20457;-61
2022/08/10 02:52:15;;;;;;;11.60;10.80;;;14.20;99.90;;;;;;5030544;28;20456;-61
2022/08/10 02:54:54;;;;;;;12.70;11.70;;;14.30;99.90;;;;;;5030936;28;20476;-62
2022/08/10 02:57:27;;;;;;;12.27;10.93;;;14.20;99.90;;;;;;5028588;28;20437;-61
2022/08/10 02:59:58;;;;;;;12.90;12.00;;;14.20;99.90;;;;;;5031640;28;20516;-61
2022/08/10 03:02:35;;;;;;;12.03;11.03;;;14.20;99.90;;;;;;5032143;28;20788;-61
2022/08/10 03:05:06;;;;;;;12.00;11.13;;;14.10;99.90;;;;;;5032051;28;20462;-61
2022/08/10 03:07:37;;;;;;;12.60;11.70;;;14.10;99.90;;;;;;5031165;28;20433;-61
2022/08/10 03:10:06;;;;;;;13.07;11.93;;;14.10;99.90;;;;;;5031168;28;20508;-61
2022/08/10 03:12:35;;;;;;;12.57;11.67;;;14.10;99.90;;;;;;5030023;28;20783;-60
2022/08/10 03:15:01;;;;;;;11.80;11.00;;;14.10;99.90;;;;;;5031800;28;20414;-61
2022/08/10 03:17:29;;;;;;;12.87;11.80;;;14.00;99.90;;;;;;5032049;28;20466;-61
2022/08/10 03:19:57;;;;;;;13.10;12.07;;;14.00;99.90;;;;;;5031758;28;20468;-61
2022/08/10 03:22:24;;;;;;;12.20;11.40;;;14.10;99.90;;;;;;5031073;28;20429;-61
2022/08/10 03:24:52;;;;;;;12.57;11.53;;;14.10;99.90;;;;;;5029462;28;20452;-61
2022/08/10 03:27:18;;;;;;;13.40;12.40;;;14.00;99.90;;;;;;5031322;28;20441;-60
2022/08/10 03:29:45;;;;;;;13.10;12.07;;;14.00;99.90;;;;;;5031535;28;20429;-61
2022/08/10 03:32:11;;;;;;;12.43;11.50;;;14.00;99.90;;;;;;5031134;28;20469;-60
2022/08/10 03:34:38;;;;;;;12.50;11.60;;;14.00;99.90;;;;;;5031811;28;20463;-60
2022/08/10 03:37:04;;;;;;;12.57;11.57;;;14.00;99.90;;;;;;5031132;28;20205;-60
2022/08/10 03:39:29;;;;;;;13.30;12.30;;;13.90;99.90;;;;;;5031331;28;20526;-61
2022/08/10 03:41:59;;;;;;;12.70;11.80;;;13.90;99.90;;;;;;5030945;28;20645;-61
2022/08/10 03:44:28;;;;;;;12.90;11.90;;;13.90;99.90;;;;;;5030451;28;20210;-61
2022/08/10 03:46:58;;;;;;;14.47;13.37;;;13.90;99.90;;;;;;5031305;28;20552;-61
2022/08/10 03:49:25;;;;;;;13.80;12.80;;;13.80;99.90;;;;;;5029927;28;20842;-61
2022/08/10 03:51:51;;;;;;;14.53;13.13;;;13.80;99.90;;;;;;5031584;28;20421;-60
2022/08/10 03:54:18;;;;;;;13.60;12.57;;;13.70;99.90;;;;;;5030954;28;20537;-61
2022/08/10 03:56:44;;;;;;;13.50;12.40;;;13.70;99.90;;;;;;5031493;28;20448;-61
2022/08/10 03:59:13;;;;;;;13.90;12.70;;;13.70;99.90;;;;;;5030092;28;21293;-61
2022/08/10 04:01:44;;;;;;;13.17;12.17;;;13.70;99.90;;;;;;5029782;28;20450;-61
2022/08/10 04:04:11;;;;;;;13.17;12.07;;;13.80;99.90;;;;;;5029295;28;20429;-61
2022/08/10 04:06:37;;;;;;;13.10;12.10;;;13.80;99.90;;;;;;5029743;28;20877;-61
2022/08/10 04:09:03;;;;;;;13.13;11.90;;;13.90;99.90;;;;;;5029845;28;20480;-61
2022/08/10 04:11:29;;;;;;;13.83;12.73;;;13.90;99.90;;;;;;5028477;28;20449;-61
2022/08/10 04:13:54;;;;;;;13.40;12.30;;;13.90;99.90;;;;;;5029252;28;20190;-61
2022/08/10 04:16:20;;;;;;;12.70;11.63;;;13.90;99.90;;;;;;5022878;28;20202;-59
2022/08/10 04:18:46;;;;;;;14.47;13.17;;;14.00;99.90;;;;;;5029849;28;21007;-60
2022/08/10 04:21:17;;;;;;;13.23;12.00;;;14.00;99.90;;;;;;5028541;28;20562;-58
2022/08/10 04:23:46;;;;;;;13.47;12.47;;;14.00;99.90;;;;;;5029493;28;20230;-60
2022/08/10 04:26:12;;;;;;;13.70;12.50;;;14.10;99.90;;;;;;5029177;28;20441;-61
2022/08/10 04:28:39;;;;;;;14.33;13.13;;;14.10;99.90;;;;;;5030844;28;20749;-60
2022/08/10 04:31:08;;;;;;;13.90;12.90;;;14.10;99.90;;;;;;5029845;28;20599;-60
2022/08/10 04:33:36;;;;;;;14.70;13.40;;;14.10;99.90;;;;;;5029607;28;20552;-60
2022/08/10 04:36:04;;;;;;;13.83;12.80;;;14.00;99.90;;;;;;5029353;28;20441;-60
2022/08/10 04:38:32;;;;;;;13.57;12.57;;;14.00;99.90;;;;;;5030569;28;20987;-60
2022/08/10 04:40:58;;;;;;;13.97;12.87;;;14.00;99.90;;;;;;5029318;28;20849;-60
2022/08/10 04:43:24;;;;;;;13.80;12.53;;;14.00;99.90;;;;;;5030032;28;20413;-59
2022/08/10 04:45:50;;;;;;;14.30;13.10;;;14.10;99.90;;;;;;5029761;28;20437;-60
2022/08/10 04:48:16;;;;;;;13.80;12.70;;;14.10;99.90;;;;;;5029522;28;20413;-59
2022/08/10 04:50:41;;;;;;;13.30;12.30;;;14.10;99.90;;;;;;5028475;28;20183;-61
2022/08/10 04:53:07;;;;;;;13.80;12.60;;;14.10;99.90;;;;;;5029990;28;20425;-61
2022/08/10 04:55:33;;;;;;;12.83;11.60;;;14.20;99.90;;;;;;5030281;28;20183;-61
2022/08/10 04:57:58;;;;;;;13.20;12.30;;;14.20;99.90;;;;;;5030514;28;20233;-61
2022/08/10 05:00:24;;;;;;;14.13;12.77;;;14.20;99.90;;;;;;5029611;28;20700;-58
2022/08/10 05:02:50;;;;;;;13.40;12.40;;;14.30;99.90;;;;;;5029957;28;20178;-59
2022/08/10 05:05:16;;;;;;;13.80;12.70;;;14.30;99.90;;;;;;5030127;28;20477;-59
2022/08/10 05:07:42;;;;;;;13.60;12.53;;;14.40;99.90;;;;;;5029977;28;20421;-59
2022/08/10 05:10:08;;;;;;;13.80;12.63;;;14.40;99.90;;;;;;5027914;28;20537;-59
2022/08/10 05:12:36;;;;;;;14.87;13.67;;;14.40;99.90;;;;;;5020873;28;20647;-59
2022/08/10 05:15:01;;;;;;;14.23;13.03;;;14.50;99.90;;;;;;5027406;28;20249;-59
2022/08/10 05:17:27;;;;;;;13.77;12.60;;;14.50;99.90;;;;;;5030072;28;20414;-60
2022/08/10 05:19:53;;;;;;;14.40;13.30;;;14.60;99.90;;;;;;5030068;28;20600;-60
2022/08/10 05:22:18;;;;;;;12.87;11.97;;;14.70;99.90;;;;;;5029660;28;20798;-59
2022/08/10 05:24:44;;;;;;;12.40;11.50;;;14.80;99.90;;;;;;5028963;28;20244;-60
2022/08/10 05:27:09;;;;;;;14.50;13.30;;;14.80;99.90;;;;;;5027908;28;20174;-60
2022/08/10 05:29:35;;;;;;;14.17;12.97;;;14.80;99.90;;;;;;5033304;28;20267;-60
2022/08/10 05:32:01;;;;;;;13.90;12.90;;;14.80;99.90;;;;;;5026982;28;20233;-59
2022/08/10 05:34:28;;;;;;;14.47;13.33;;;14.80;99.90;;;;;;5027752;28;20182;-52
2022/08/10 05:36:55;;;;;;;12.93;12.03;;;14.90;99.90;;;;;;5029081;28;20449;-60
2022/08/10 05:39:22;;;;;;;14.07;12.47;;;14.80;99.90;;;;;;5024612;28;20430;-61
2022/08/10 05:41:52;;;;;;;15.10;13.83;;;14.80;99.90;;;;;;5025638;28;20410;-59
2022/08/10 05:44:20;;;;;;;13.97;12.87;;;14.90;99.90;;;;;;5029330;28;20463;-60
2022/08/10 05:46:48;;;;;;;13.90;12.50;;;14.80;99.90;;;;;;5028957;28;20765;-59
2022/08/10 05:49:14;;;;;;;14.57;13.47;;;14.90;99.90;;;;;;5028514;28;20472;-60
2022/08/10 05:51:40;;;;;;;13.93;12.90;;;14.90;99.90;;;;;;5028995;28;20418;-60
2022/08/10 05:54:13;;;;;;;13.57;12.60;;;15.00;99.90;;;;;;5028300;28;20183;-59
2022/08/10 05:56:41;;;;;;;13.70;12.70;;;15.00;99.90;;;;;;5042336;28;20472;-59
2022/08/10 05:59:08;;;;;;;13.73;12.67;;;15.10;99.90;;;;;;5027909;28;20418;-59
2022/08/10 06:01:38;;;;;;;14.70;13.50;;;15.10;99.90;;;;;;5028677;28;21100;-60
2022/08/10 06:04:05;;;;;;;14.43;12.80;;;15.20;99.90;;;;;;5028892;28;20472;-61
2022/08/10 06:06:32;;;;;;;13.70;12.50;;;15.20;99.90;;;;;;5028713;28;20946;-60
2022/08/10 06:08:59;;;;;;;13.40;12.50;;;15.40;99.90;;;;;;5029062;28;20928;-60
2022/08/10 06:11:28;;;;;;;13.33;12.37;;;15.40;99.90;;;;;;5028887;28;20431;-61
2022/08/10 06:16:42;;;;;;;13.47;12.17;;;15.70;99.90;;;;;;5029362;28;20483;-62
2022/08/10 06:19:10;;;;;;;12.90;11.87;;;15.80;99.90;;;;;;5028871;28;20501;-61
2022/08/10 06:21:36;;;;;;;13.33;12.27;;;16.00;99.90;;;;;;5028336;28;20462;-59
2022/08/10 06:24:04;;;;;;;13.23;12.03;;;16.20;99.90;;;;;;5029220;28;20411;-61
2022/08/10 06:26:29;;;;;;;13.03;11.83;;;16.30;99.90;;;;;;5021035;28;20430;-60
2022/08/10 06:29:01;;;;;;;13.40;12.40;;;16.50;99.90;;;;;;5026305;28;20408;-61
2022/08/10 06:31:28;;;;;;;13.07;12.07;;;16.50;99.90;;;;;;5027429;28;20261;-61
2022/08/10 06:33:56;;;;;;;12.20;11.30;;;16.60;99.90;;;;;;5027389;28;20491;-60
2022/08/10 06:36:23;;;;;;;13.60;12.40;;;16.80;99.90;;;;;;5028762;28;20662;-61
2022/08/10 06:38:50;;;;;;;13.20;12.10;;;16.80;99.90;;;;;;5027381;28;21168;-61
2022/08/10 06:41:22;;;;;;;12.50;11.60;;;16.80;99.90;;;;;;5028130;28;20472;-60
2022/08/10 06:43:57;;;;;;;13.07;11.83;;;16.90;99.90;;;;;;5028338;28;20438;-60
2022/08/10 06:46:25;;;;;;;12.30;11.27;;;17.00;99.90;;;;;;5028252;28;20448;-60
2022/08/10 06:48:56;;;;;;;12.43;11.40;;;17.20;99.90;;;;;;5027049;28;20431;-61
2022/08/10 06:51:26;;;;;;;12.30;11.43;;;17.30;99.90;;;;;;5043156;28;20802;-60
2022/08/10 06:53:55;;;;;;;11.20;10.43;;;17.40;99.90;;;;;;5026180;28;20425;-61
2022/08/10 06:56:23;;;;;;;12.33;11.37;;;17.50;99.90;;;;;;5028828;28;20922;-60
2022/08/10 06:58:56;;;;;;;11.70;10.93;;;17.50;99.90;;;;;;5028518;28;21048;-61
2022/08/10 07:01:26;;;;;;;11.70;10.80;;;17.60;99.90;;;;;;5028548;28;20472;-60
2022/08/10 07:04:01;;;;;;;12.13;11.27;;;17.70;99.90;;;;;;5028543;28;20425;-61
2022/08/10 07:06:28;;;;;;;10.70;10.00;;;17.80;99.70;;;;;;5028494;28;20459;-61
2022/08/10 07:08:55;;;;;;;11.30;10.60;;;18.00;99.40;;;;;;5028318;28;20421;-62
2022/08/10 07:11:22;;;;;;;10.97;10.07;;;18.10;98.50;;;;;;5030164;28;20409;-60
2022/08/10 07:13:49;;;;;;;11.80;10.80;;;18.20;97.80;;;;;;5032344;28;20413;-60
2022/08/10 07:16:16;;;;;;;11.50;10.50;;;18.30;97.60;;;;;;5032235;28;21012;-60
2022/08/10 07:18:44;;;;;;;11.67;10.77;;;18.50;97.50;;;;;;5031965;28;20831;-60
2022/08/10 07:21:12;;;;;;;11.03;10.23;;;18.70;97.20;;;;;;5012494;28;20501;-55
2022/08/10 07:23:39;;;;;;;11.50;10.50;;;18.90;96.40;;;;;;5026147;28;20512;-61
2022/08/10 07:26:07;;;;;;;11.10;10.20;;;19.10;95.30;;;;;;5031390;28;20449;-61
2022/08/10 07:28:33;;;;;;;11.00;10.30;;;19.20;94.50;;;;;;5031354;28;20504;-61
2022/08/10 07:31:00;;;;;;;10.90;10.00;;;19.30;94.30;;;;;;5032045;28;20449;-61
2022/08/10 07:33:27;;;;;;;11.57;10.77;;;19.40;94.70;;;;;;5031711;28;20912;-62
2022/08/10 07:35:56;;;;;;;10.83;10.13;;;19.40;94.60;;;;;;5031680;28;20513;-61
2022/08/10 07:38:30;;;;;;;11.37;10.57;;;19.50;94.50;;;;;;5031707;28;20421;-61
2022/08/10 07:40:59;;;;;;;11.77;10.87;;;19.50;94.30;;;;;;5031798;28;20545;-61
2022/08/10 07:43:26;;;;;;;11.77;10.63;;;19.60;94.30;;;;;;5030727;28;20432;-62
2022/08/10 07:45:52;;;;;;;12.20;11.10;;;19.70;94.20;;;;;;5031406;28;20452;-61
2022/08/10 07:48:24;;;;;;;12.00;11.10;;;19.90;93.20;;;;;;5031684;28;20528;-61
2022/08/10 07:50:54;;;;;;;10.90;10.20;;;20.00;93.00;;;;;;5031616;28;20421;-60
2022/08/10 07:53:25;;;;;;;10.37;9.57;;;20.30;91.60;;;;;;5028871;28;20433;-61
2022/08/10 07:55:53;;;;;;;11.03;10.23;;;20.60;91.20;;;;;;5021525;28;20421;-61
2022/08/10 07:58:21;;;;;;;11.70;10.50;;;20.80;88.10;;;;;;5024443;28;20416;-61
2022/08/10 08:00:49;;;;;;;10.77;10.10;;;21.10;84.80;;;;;;5022181;28;20497;-60
2022/08/10 08:03:15;;;;;;;10.20;9.40;;;21.30;83.50;;;;;;5013748;28;20466;-61
2022/08/10 08:05:42;;;;;;;10.10;9.40;;;21.50;83.00;;;;;;5030917;28;20535;-59
2022/08/10 08:08:08;;;;;;;10.63;9.67;;;21.70;80.40;;;;;;5030570;28;20470;-61
2022/08/10 08:10:36;;;;;;;10.10;9.40;;;21.80;79.30;;;;;;5029082;28;21227;-60
2022/08/10 08:13:03;;;;;;;11.40;10.50;;;22.10;76.00;;;;;;5030842;28;20428;-59
2022/08/10 08:15:30;;;;;;;10.67;9.97;;;22.20;74.50;;;;;;5030357;28;20431;-60
2022/08/10 08:17:58;;;;;;;10.00;9.40;;;22.50;73.20;;;;;;5029708;28;20433;-60
2022/08/10 08:20:24;;;;;;;10.77;9.87;;;22.70;71.30;;;;;;5030492;28;20464;-60
2022/08/10 08:22:51;;;;;;;10.63;9.83;;;22.70;71.50;;;;;;5030854;28;20495;-60
2022/08/10 08:25:18;;;;;;;10.20;9.60;;;22.80;69.70;;;;;;5027502;28;20422;-59
2022/08/10 08:27:51;;;;;;;10.17;9.57;;;23.00;69.40;;;;;;5029302;28;20952;-60
2022/08/10 08:30:17;;;;;;;10.60;9.90;;;23.30;68.30;;;;;;5024355;28;20426;-60
2022/08/10 08:32:45;;;;;;;10.47;9.67;;;23.50;66.90;;;;;;5021443;28;20503;-57
2022/08/10 08:35:14;;;;;;;10.93;10.03;;;23.70;65.30;;;;;;5025296;28;20489;-61
2022/08/10 08:37:41;;;;;;;10.77;9.87;;;23.80;63.00;;;;;;5030791;28;20480;-60
2022/08/10 08:40:12;;;;;;;10.90;10.00;;;24.00;63.20;;;;;;5030299;28;20467;-60
2022/08/10 08:42:47;;;;;;;10.80;9.90;;;24.20;59.80;;;;;;5030337;28;20406;-60
2022/08/10 08:45:35;;;;;;;11.60;9.67;;;24.30;58.80;;;;;;5030806;28;20424;-60
2022/08/10 08:48:18;;;;;;;10.57;9.67;;;24.60;58.80;;;;;;5024740;28;20421;-60
2022/08/10 08:51:02;;;;;;;10.33;9.63;;;25.00;57.20;;;;;;5023791;28;21269;-60
2022/08/10 08:53:37;;;;;;;10.53;9.80;;;25.30;55.80;;;;;;5023650;28;20412;-61
2022/08/10 08:56:15;;;;;;;10.33;9.57;;;25.60;54.00;;;;;;5021306;28;20414;-60
2022/08/10 08:58:50;;;;;;;10.13;9.40;;;26.20;52.70;;;;;;5022028;28;20421;-60
2022/08/10 09:01:52;;;;;;;10.63;9.73;;;26.60;51.70;;;;;;5016478;28;20470;-60
2022/08/10 09:04:36;;;;;;;9.67;8.87;;;27.10;49.70;;;;;;5029721;28;20424;-61
2022/08/10 09:07:16;;;;;;;9.80;9.00;;;27.60;46.10;;;;;;5028968;28;20536;-61
2022/08/10 09:10:03;;;;;;;9.63;9.00;;;28.00;44.70;;;;;;5026964;28;20433;-61
2022/08/10 09:12:40;;;;;;;9.80;9.00;;;28.70;42.90;;;;;;5024799;28;21002;-60
2022/08/10 09:15:22;;;;;;;8.77;8.17;;;29.30;40.40;;;;;;5023089;28;21023;-60
2022/08/10 09:18:02;;;;;;;9.43;8.60;;;29.80;38.90;;;;;;5028036;28;20772;-61
2022/08/10 09:20:50;;;;;;;9.50;8.77;;;30.40;36.60;;;;;;5028088;28;20460;-61
2022/08/10 09:23:40;;;;;;;8.57;7.87;;;30.90;33.90;;;;;;5024587;28;20484;-60
2022/08/10 09:26:21;;;;;;;8.77;8.17;;;31.40;33.00;;;;;;5016599;28;20429;-60
2022/08/10 09:28:50;;;;;;;8.70;8.10;;;31.90;31.50;;;;;;5028311;28;20484;-60
2022/08/10 09:31:21;;;;;;;9.17;8.23;;;32.20;29.50;;;;;;5028978;28;20418;-61
2022/08/10 09:34:05;;;;;;;8.50;8.00;;;32.70;28.80;;;;;;5025969;28;20499;-60
2022/08/10 09:36:58;;;;;;;8.10;7.60;;;33.20;26.20;;;;;;5017875;28;20525;-60
2022/08/10 09:39:41;;;;;;;8.70;8.10;;;33.50;26.00;;;;;;5028199;28;20438;-61
2022/08/10 09:42:27;;;;;;;8.47;7.77;;;33.60;25.40;;;;;;5028413;28;20426;-60
2022/08/10 09:45:13;;;;;;;9.30;8.47;;;33.30;25.80;;;;;;5028334;28;20465;-60
2022/08/10 09:47:55;;;;;;;8.10;7.60;;;32.90;26.50;;;;;;5027117;28;20446;-60
2022/08/10 09:50:34;;;;;;;8.50;7.90;;;32.30;26.30;;;;;;5027637;28;20544;-61
2022/08/10 09:53:07;;;;;;;9.10;8.50;;;31.70;27.00;;;;;;5016182;28;20449;-60
2022/08/10 09:56:08;;;;;;;7.90;7.40;;;31.30;27.50;;;;;;5024746;28;20429;-60
2022/08/10 09:58:49;;;;;;;9.20;8.40;;;30.80;28.20;;;;;;5027553;28;20451;-61
2022/08/10 10:01:30;;;;;;;8.90;8.00;;;30.40;28.40;;;;;;5023501;28;20469;-60
2022/08/10 10:04:22;;;;;;;8.07;7.67;;;30.20;29.00;;;;;;5023322;28;20437;-61
2022/08/10 10:06:57;;;;;;;8.00;7.40;;;29.90;29.30;;;;;;5028757;28;20417;-60
2022/08/10 10:09:39;;;;;;;9.13;8.43;;;29.60;29.60;;;;;;5027988;28;20447;-61
2022/08/10 10:12:24;;;;;;;8.93;8.47;;;29.30;30.00;;;;;;5022847;28;20819;-60
2022/08/10 10:15:20;;;;;;;8.63;8.03;;;29.10;30.60;;;;;;5025424;28;20447;-60
2022/08/10 10:17:55;;;;;;;8.13;7.53;;;29.10;30.70;;;;;;5022452;28;20452;-52
2022/08/10 10:20:58;;;;;;;9.20;8.60;;;29.20;30.30;;;;;;5025233;28;20497;-50
2022/08/10 10:23:48;;;;;;;8.80;8.13;;;29.20;29.90;;;;;;5025703;28;20826;-58
2022/08/10 10:26:25;;;;;;;8.30;7.70;;;29.30;30.40;;;;;;5020565;28;20413;-53
2022/08/10 10:29:33;;;;;;;8.73;8.03;;;29.40;30.50;;;;;;5023850;28;20437;-53
2022/08/10 10:32:05;;;;;;;8.43;7.93;;;29.40;30.10;;;;;;5002468;28;20543;-55
2022/08/10 10:34:54;;;;;;;8.17;7.50;;;29.60;29.20;;;;;;5020766;28;20437;-52
2022/08/10 10:37:22;;;;;;;8.00;7.60;;;29.50;28.80;;;;;;5022671;28;20825;-54
2022/08/10 10:39:52;;;;;;;7.87;7.43;;;29.40;28.00;;;;;;5020053;28;20449;-51
2022/08/10 10:42:39;;;;;;;7.83;7.43;;;29.40;28.80;;;;;;5019925;28;20878;-54
2022/08/10 10:45:19;;;;;;;7.67;7.20;;;29.50;28.90;;;;;;5021463;28;20511;-54
2022/08/10 10:47:50;;;;;;;7.83;7.17;;;29.60;29.10;;;;;;5032820;28;20516;-52
2022/08/10 10:50:30;;;;;;;9.07;8.57;;;29.80;28.20;;;;;;5031630;28;20843;-56
2022/08/10 10:53:06;;;;;;;8.33;7.70;;;30.00;26.90;;;;;;5030601;28;20786;-50
2022/08/10 10:56:10;;;;;;;8.83;7.93;;;29.90;27.40;;;;;;5029266;28;20511;-55
2022/08/10 10:58:45;;;;;;;8.87;8.37;;;30.10;27.80;;;;;;5024566;28;20511;-51
2022/08/10 11:01:29;;;;;;;8.23;7.63;;;30.40;27.80;;;;;;5023212;28;20474;-52
2022/08/10 11:04:12;;;;;;;9.00;8.13;;;30.40;27.70;;;;;;5030501;28;20476;-55
2022/08/10 11:06:56;;;;;;;9.53;8.03;;;30.30;27.50;;;;;;5030142;28;20927;-51
2022/08/10 11:09:27;;;;;;;8.90;8.00;;;30.40;27.80;;;;;;5027919;28;20425;-52
2022/08/10 11:11:59;;;;;;;8.23;7.53;;;30.50;27.50;;;;;;5031260;28;20531;-58
2022/08/10 11:14:47;;;;;;;7.90;7.40;;;30.60;27.70;;;;;;5028062;28;20446;-52
2022/08/10 11:17:39;;;;;;;8.57;8.07;;;30.70;27.50;;;;;;5031543;28;20802;-54
2022/08/10 11:20:21;;;;;;;8.47;7.87;;;30.70;26.80;;;;;;5031196;28;20496;-56
2022/08/10 11:23:03;;;;;;;8.03;7.63;;;31.20;26.60;;;;;;5030675;28;20962;-52
2022/08/10 11:25:37;;;;;;;7.90;7.50;;;31.60;24.80;;;;;;5029926;28;20859;-55
2022/08/10 11:28:19;;;;;;;8.40;7.90;;;31.80;24.60;;;;;;5031751;28;20499;-56
2022/08/10 11:31:12;;;;;;;8.77;7.93;;;32.10;24.40;;;;;;5031247;28;20950;-56
2022/08/10 11:33:59;;;;;;;8.83;8.10;;;32.60;23.40;;;;;;5031197;28;20492;-58
2022/08/10 11:36:40;;;;;;;8.00;7.60;;;33.00;23.10;;;;;;5018860;28;20532;-54
2022/08/10 11:39:30;;;;;;;8.00;7.50;;;33.00;23.00;;;;;;5031162;28;20433;-58
2022/08/10 11:42:01;;;;;;;8.40;7.80;;;32.80;22.40;;;;;;5030289;28;20433;-53
2022/08/10 11:44:36;;;;;;;7.57;7.17;;;32.50;22.90;;;;;;5029554;28;20437;-56
2022/08/10 11:47:17;;;;;;;7.63;7.13;;;32.20;23.40;;;;;;5015984;28;20469;-51
2022/08/10 11:49:57;;;;;;;8.50;8.10;;;31.90;23.70;;;;;;5027727;28;20533;-50
2022/08/10 11:52:34;;;;;;;8.80;8.10;;;31.40;23.90;;;;;;5031117;28;20793;-54
2022/08/10 11:55:09;;;;;;;8.17;7.57;;;31.10;24.20;;;;;;5030031;28;20437;-55
2022/08/10 11:57:36;;;;;;;8.73;8.13;;;31.00;24.70;;;;;;5030862;28;20425;-51
2022/08/10 12:00:03;;;;;;;8.73;8.00;;;31.00;24.90;;;;;;5029022;28;20796;-52
2022/08/10 12:02:40;;;;;;;9.20;8.40;;;31.00;24.30;;;;;;5025354;28;20434;-55
2022/08/10 12:05:20;;;;;;;8.20;7.70;;;31.10;24.50;;;;;;5029802;28;20437;-53
2022/08/10 12:07:51;;;;;;;8.27;7.77;;;30.70;24.80;;;;;;5029881;28;20452;-54
2022/08/10 12:10:19;;;;;;;8.07;7.57;;;30.70;24.90;;;;;;5031037;28;20943;-53
2022/08/10 12:12:54;;;;;;;8.07;7.37;;;30.80;24.90;;;;;;5030197;28;20441;-54
2022/08/10 12:15:40;;;;;;;8.30;7.80;;;31.00;23.80;;;;;;5029946;28;20528;-55
2022/08/10 12:18:16;;;;;;;7.87;7.40;;;31.30;24.20;;;;;;5030232;28;20429;-52
2022/08/10 12:20:47;;;;;;;7.93;7.53;;;31.70;23.40;;;;;;5020643;28;20501;-50
2022/08/10 12:23:38;;;;;;;8.63;8.07;;;31.90;23.90;;;;;;5028285;28;20445;-51
2022/08/10 12:26:19;;;;;;;8.10;7.70;;;31.40;22.50;;;;;;5004357;28;20520;-53
2022/08/10 12:29:02;;;;;;;8.77;8.27;;;31.30;23.30;;;;;;5029680;28;20787;-53
2022/08/10 12:32:13;;;;;;;8.50;7.83;;;31.40;23.30;;;;;;5026028;28;20428;-57
2022/08/10 12:34:55;;;;;;;8.57;8.07;;;31.30;23.00;;;;;;4988225;28;20530;-53
2022/08/10 12:37:44;;;;;;;8.87;8.17;;;31.30;23.30;;;;;;5025795;28;21243;-51
2022/08/10 12:40:13;;;;;;;8.30;7.80;;;31.30;23.30;;;;;;5030137;28;20539;-50
2022/08/10 12:42:47;;;;;;;8.20;7.60;;;31.40;23.60;;;;;;5028858;28;20446;-56
2022/08/10 12:45:24;;;;;;;8.23;7.60;;;31.90;23.60;;;;;;5029012;28;20422;-53
2022/08/10 12:48:23;;;;;;;8.60;8.10;;;32.30;22.80;;;;;;5029206;28;20456;-53
2022/08/10 12:50:56;;;;;;;7.80;7.20;;;32.70;22.10;;;;;;5009693;28;20442;-53
2022/08/10 12:54:00;;;;;;;8.63;7.97;;;32.50;22.10;;;;;;5027172;28;20432;-55
2022/08/10 12:56:31;;;;;;;8.80;8.00;;;32.80;22.00;;;;;;5029049;28;20426;-52
2022/08/10 12:58:58;;;;;;;7.80;7.20;;;33.30;22.30;;;;;;5029268;28;21183;-56
2022/08/10 13:01:29;;;;;;;8.77;8.17;;;33.70;20.90;;;;;;5029884;28;20469;-53
2022/08/10 13:04:00;;;;;;;8.20;7.70;;;34.20;20.60;;;;;;5028982;28;20409;-55